Time;durP1;ratioP1;P1;durP2;ratioP2;P2;SDS_P1;SDS_P2;PMS_P1;PMS_P2;Temp;Humidity;BMP_temperature;BMP_pressure;BME280_temperature;BME280_humidity;BME280_pressure;Samples;Min_cycle;Max_cycle;Signal;HPM_P1;HPM_P2
2023/01/24 00:02:00;;;;;;;18.27;12.23;;;;;;;;;;5007224;28;20573;-43
2023/01/24 00:04:25;;;;;;;19.33;12.00;;;;;;;;;;5003515;28;20038;-44
2023/01/24 00:06:51;;;;;;;21.00;13.27;;;;;;;;;;5004906;28;20080;-43
2023/01/24 00:09:16;;;;;;;20.08;12.30;;;;;;;;;;5005165;28;20042;-43
2023/01/24 00:11:41;;;;;;;17.48;11.95;;;;;;;;;;5002592;28;20036;-42
2023/01/24 00:14:07;;;;;;;23.00;14.50;;;;;;;;;;5004525;28;20061;-46
2023/01/24 00:16:32;;;;;;;23.25;13.77;;;;;;;;;;5002929;28;20037;-42
2023/01/24 00:18:57;;;;;;;25.23;14.60;;;;;;;;;;5004582;28;20100;-42
2023/01/24 00:21:24;;;;;;;23.10;14.52;;;;;;;;;;5005238;28;20032;-44
2023/01/24 00:23:51;;;;;;;25.00;14.35;;;;;;;;;;5005342;28;20041;-43
2023/01/24 00:26:18;;;;;;;29.75;16.48;;;;;;;;;;5005274;28;20064;-43
2023/01/24 00:28:44;;;;;;;35.30;18.95;;;;;;;;;;5005865;28;20044;-42
2023/01/24 00:31:10;;;;;;;31.17;17.65;;;;;;;;;;5005661;28;20030;-42
2023/01/24 00:33:35;;;;;;;28.88;15.20;;;;;;;;;;5003906;28;20103;-45
2023/01/24 00:36:01;;;;;;;31.40;16.10;;;;;;;;;;5003600;28;20030;-42
2023/01/24 00:38:28;;;;;;;37.08;18.05;;;;;;;;;;5001912;28;20050;-42
2023/01/24 00:40:54;;;;;;;27.35;16.65;;;;;;;;;;5004847;28;20487;-46
2023/01/24 00:43:19;;;;;;;27.00;14.13;;;;;;;;;;5004674;28;20069;-42
2023/01/24 00:45:45;;;;;;;27.48;14.05;;;;;;;;;;5005278;28;20199;-43
2023/01/24 00:48:12;;;;;;;26.75;13.20;;;;;;;;;;5003188;28;20634;-43
2023/01/24 00:50:37;;;;;;;20.08;12.23;;;;;;;;;;5004927;28;20065;-43
2023/01/24 00:53:03;;;;;;;30.85;16.63;;;;;;;;;;5003613;28;20084;-45
2023/01/24 00:55:30;;;;;;;24.95;15.40;;;;;;;;;;5004963;28;20030;-45
2023/01/24 00:57:55;;;;;;;18.80;11.73;;;;;;;;;;5005466;28;20050;-42
2023/01/24 01:00:21;;;;;;;17.33;11.00;;;;;;;;;;5003756;28;20103;-42
2023/01/24 01:02:48;;;;;;;14.90;10.30;;;;;;;;;;5003070;28;20042;-42
2023/01/24 01:05:13;;;;;;;17.20;11.50;;;;;;;;;;5005287;28;20025;-42
2023/01/24 01:07:39;;;;;;;14.38;10.00;;;;;;;;;;5004680;28;20088;-44
2023/01/24 01:10:05;;;;;;;15.85;11.05;;;;;;;;;;5002727;28;20567;-42
2023/01/24 01:12:30;;;;;;;13.98;10.65;;;;;;;;;;5006108;28;20030;-42
2023/01/24 01:14:55;;;;;;;16.73;11.95;;;;;;;;;;5005639;28;20359;-42
2023/01/24 01:17:21;;;;;;;21.50;13.52;;;;;;;;;;5007459;28;20033;-45
2023/01/24 01:19:50;;;;;;;20.95;14.00;;;;;;;;;;5009274;28;20037;-41
2023/01/24 01:22:16;;;;;;;24.25;14.52;;;;;;;;;;5009698;28;20041;-44
2023/01/24 01:24:41;;;;;;;20.67;13.98;;;;;;;;;;5007507;28;20022;-43
2023/01/24 01:27:07;;;;;;;18.42;13.55;;;;;;;;;;5008566;28;20039;-42
2023/01/24 01:29:33;;;;;;;21.17;14.10;;;;;;;;;;5007594;28;20049;-44
2023/01/24 01:31:58;;;;;;;23.77;14.35;;;;;;;;;;5011332;28;20025;-42
2023/01/24 01:34:24;;;;;;;22.25;13.70;;;;;;;;;;5008472;28;20111;-42
2023/01/24 01:36:49;;;;;;;24.13;13.63;;;;;;;;;;5008581;28;20037;-45
2023/01/24 01:39:15;;;;;;;25.02;14.15;;;;;;;;;;5007647;28;20499;-47
2023/01/24 01:41:40;;;;;;;21.77;13.75;;;;;;;;;;5008024;28;20029;-45
2023/01/24 01:44:37;;;;;;;22.92;14.38;;;;;;;;;;5006463;28;20160;-42
2023/01/24 01:47:09;;;;;;;22.45;13.10;;;;;;;;;;5007479;28;20095;-42
2023/01/24 01:49:45;;;;;;;20.70;13.47;;;;;;;;;;5021223;28;20510;-43
2023/01/24 01:52:10;;;;;;;26.02;14.18;;;;;;;;;;5008911;28;20645;-46
2023/01/24 01:54:40;;;;;;;21.33;13.77;;;;;;;;;;5007758;28;20037;-45
2023/01/24 01:57:17;;;;;;;19.23;12.63;;;;;;;;;;5006968;28;20033;-42
2023/01/24 02:00:00;;;;;;;18.15;11.73;;;;;;;;;;5009384;28;20054;-43
2023/01/24 02:02:26;;;;;;;18.35;12.15;;;;;;;;;;5007294;28;20088;-45
2023/01/24 02:05:01;;;;;;;18.25;12.18;;;;;;;;;;5008871;28;20060;-44
2023/01/24 02:07:44;;;;;;;19.33;13.10;;;;;;;;;;5005809;28;20841;-42
2023/01/24 02:10:10;;;;;;;18.20;12.70;;;;;;;;;;5006702;28;20436;-45
2023/01/24 02:12:47;;;;;;;17.88;12.48;;;;;;;;;;5006930;28;20046;-46
2023/01/24 02:18:06;;;;;;;18.95;12.77;;;;;;;;;;5007989;28;20149;-42
2023/01/24 02:20:41;;;;;;;26.23;13.60;;;;;;;;;;5007670;28;20473;-43
2023/01/24 02:23:44;;;;;;;17.92;12.63;;;;;;;;;;5005773;28;20503;-40
2023/01/24 02:26:17;;;;;;;20.63;11.73;;;;;;;;;;5008446;28;20483;-44
2023/01/24 02:28:48;;;;;;;17.05;11.25;;;;;;;;;;5005516;28;20521;-43
2023/01/24 02:31:14;;;;;;;17.63;11.33;;;;;;;;;;5006930;28;20502;-42
2023/01/24 02:33:39;;;;;;;17.70;11.10;;;;;;;;;;5008314;28;20048;-44
2023/01/24 02:36:37;;;;;;;15.35;10.90;;;;;;;;;;5007547;28;20061;-42
2023/01/24 02:39:16;;;;;;;17.05;11.45;;;;;;;;;;4980662;28;20535;-42
2023/01/24 02:41:49;;;;;;;15.82;11.43;;;;;;;;;;4984359;28;20046;-43
2023/01/24 02:44:51;;;;;;;17.20;11.30;;;;;;;;;;4983003;28;20141;-43
2023/01/24 02:47:16;;;;;;;16.30;10.98;;;;;;;;;;4928515;29;20055;-42
2023/01/24 02:49:42;;;;;;;15.70;10.23;;;;;;;;;;4927764;29;20048;-43
2023/01/24 02:54:51;;;;;;;17.15;11.75;;;;;;;;;;4928712;29;20645;-41
2023/01/24 03:00:00;;;;;;;14.85;10.70;;;;;;;;;;4929572;29;20168;-42
2023/01/24 03:02:26;;;;;;;15.40;11.18;;;;;;;;;;4927562;29;20148;-44
2023/01/24 03:04:51;;;;;;;20.17;12.07;;;;;;;;;;4927118;29;20044;-43
2023/01/24 03:07:17;;;;;;;19.25;12.43;;;;;;;;;;4928007;29;20409;-43
2023/01/24 03:09:48;;;;;;;19.00;12.43;;;;;;;;;;4927980;29;20122;-45
2023/01/24 03:36:52;;;;;;;16.70;11.23;;;;;;;;;;5003601;28;20045;-42
2023/01/24 03:42:02;;;;;;;18.90;12.15;;;;;;;;;;5004856;28;20041;-42
2023/01/24 03:44:28;;;;;;;16.98;12.30;;;;;;;;;;5005559;28;20050;-42
2023/01/24 03:46:54;;;;;;;16.85;12.13;;;;;;;;;;5007608;28;20038;-44
2023/01/24 03:49:19;;;;;;;20.58;12.82;;;;;;;;;;5005671;28;20044;-45
2023/01/24 03:54:28;;;;;;;18.98;11.10;;;;;;;;;;5002247;28;20088;-45
2023/01/24 03:56:54;;;;;;;16.38;9.85;;;;;;;;;;5008484;28;20033;-43
2023/01/24 03:59:19;;;;;;;14.90;10.55;;;;;;;;;;5005597;28;20038;-43
2023/01/24 04:01:44;;;;;;;21.92;12.02;;;;;;;;;;5006420;28;20044;-45
2023/01/24 04:04:11;;;;;;;16.55;10.82;;;;;;;;;;5006647;28;20646;-44
2023/01/24 04:06:36;;;;;;;14.02;9.82;;;;;;;;;;5004509;28;20422;-43
2023/01/24 04:09:02;;;;;;;16.35;9.65;;;;;;;;;;5004737;28;20134;-41
2023/01/24 04:11:27;;;;;;;13.82;9.20;;;;;;;;;;5005673;28;20038;-44
2023/01/24 04:13:53;;;;;;;12.10;8.88;;;;;;;;;;5004706;28;20112;-46
2023/01/24 04:16:18;;;;;;;19.67;9.82;;;;;;;;;;5007850;28;20039;-49
2023/01/24 04:18:44;;;;;;;15.82;10.40;;;;;;;;;;5004680;28;20405;-42
2023/01/24 04:21:09;;;;;;;20.83;11.70;;;;;;;;;;5004483;28;20570;-43
2023/01/24 04:23:37;;;;;;;16.25;10.50;;;;;;;;;;5004975;28;20136;-44
2023/01/24 04:26:03;;;;;;;10.93;8.80;;;;;;;;;;5004845;28;20030;-43
2023/01/24 04:28:30;;;;;;;12.57;9.45;;;;;;;;;;5004028;28;20045;-43
2023/01/24 04:31:00;;;;;;;13.75;9.57;;;;;;;;;;5006671;28;20151;-44
2023/01/24 04:33:26;;;;;;;13.95;9.68;;;;;;;;;;5006773;28;21219;-42
2023/01/24 04:35:55;;;;;;;12.77;10.23;;;;;;;;;;5004703;28;20455;-42
2023/01/24 04:38:20;;;;;;;15.68;9.60;;;;;;;;;;5004869;28;20404;-43
2023/01/24 04:40:46;;;;;;;14.25;9.68;;;;;;;;;;5004166;28;20041;-44
2023/01/24 04:43:11;;;;;;;15.00;10.52;;;;;;;;;;5004811;28;20038;-45
2023/01/24 04:45:36;;;;;;;15.25;11.50;;;;;;;;;;5003561;28;20034;-42
2023/01/24 04:48:02;;;;;;;20.02;11.77;;;;;;;;;;5004694;28;20105;-45
2023/01/24 04:50:27;;;;;;;18.67;11.50;;;;;;;;;;5004002;28;20038;-42
2023/01/24 04:52:53;;;;;;;20.08;11.40;;;;;;;;;;5009267;28;20042;-44
2023/01/24 04:55:18;;;;;;;15.57;12.07;;;;;;;;;;5008479;28;20030;-45
2023/01/24 04:57:43;;;;;;;22.13;12.73;;;;;;;;;;5009191;28;20084;-43
2023/01/24 05:00:09;;;;;;;16.35;11.48;;;;;;;;;;5007579;28;20026;-44
2023/01/24 05:02:37;;;;;;;17.60;12.38;;;;;;;;;;5007709;28;20046;-42
2023/01/24 05:05:03;;;;;;;18.63;12.90;;;;;;;;;;5010143;28;20061;-46
2023/01/24 05:07:28;;;;;;;19.80;12.32;;;;;;;;;;5008745;28;20422;-44
2023/01/24 05:09:53;;;;;;;20.20;12.77;;;;;;;;;;5011128;28;20034;-43
2023/01/24 05:12:19;;;;;;;23.17;12.02;;;;;;;;;;5008552;28;20033;-44
2023/01/24 05:14:45;;;;;;;16.25;10.25;;;;;;;;;;5006921;28;20488;-45
2023/01/24 05:17:10;;;;;;;13.98;10.00;;;;;;;;;;5009577;28;20037;-44
2023/01/24 05:19:36;;;;;;;13.38;9.02;;;;;;;;;;5007688;28;20050;-47
2023/01/24 05:22:01;;;;;;;15.77;10.02;;;;;;;;;;5010562;28;20030;-46
2023/01/24 05:24:26;;;;;;;16.10;10.65;;;;;;;;;;5012465;28;20129;-43
2023/01/24 05:26:52;;;;;;;15.38;11.30;;;;;;;;;;5009451;28;20730;-42
2023/01/24 05:29:17;;;;;;;22.65;13.02;;;;;;;;;;5008684;28;20096;-42
2023/01/24 05:31:43;;;;;;;18.75;12.23;;;;;;;;;;5004646;28;20036;-42
2023/01/24 05:34:08;;;;;;;18.85;12.55;;;;;;;;;;5010175;28;20049;-42
2023/01/24 05:36:33;;;;;;;15.57;10.25;;;;;;;;;;5008662;28;20088;-43
2023/01/24 05:38:59;;;;;;;16.48;10.77;;;;;;;;;;5008989;28;20125;-45
2023/01/24 05:41:24;;;;;;;18.70;12.85;;;;;;;;;;5008537;28;20099;-45
2023/01/24 05:43:49;;;;;;;21.30;13.98;;;;;;;;;;5007487;28;20457;-42
2023/01/24 05:46:17;;;;;;;23.02;13.38;;;;;;;;;;5006852;28;20114;-44
2023/01/24 05:48:44;;;;;;;22.17;13.65;;;;;;;;;;5003997;28;20052;-44
2023/01/24 05:51:12;;;;;;;28.83;13.93;;;;;;;;;;5006707;28;20573;-47
2023/01/24 05:53:39;;;;;;;27.27;16.08;;;;;;;;;;5007848;28;20041;-43
2023/01/24 05:56:09;;;;;;;26.67;16.65;;;;;;;;;;5008953;28;20034;-44
2023/01/24 05:58:36;;;;;;;35.03;16.17;;;;;;;;;;5007312;28;20038;-44
2023/01/24 06:01:08;;;;;;;28.70;15.88;;;;;;;;;;5005545;28;20468;-48
2023/01/24 06:03:36;;;;;;;30.98;16.80;;;;;;;;;;5007124;28;20053;-42
2023/01/24 06:06:01;;;;;;;24.88;16.30;;;;;;;;;;5008717;28;20498;-42
2023/01/24 06:08:26;;;;;;;26.15;16.63;;;;;;;;;;5008379;28;20042;-50
2023/01/24 06:10:52;;;;;;;29.90;13.95;;;;;;;;;;5006974;28;20037;-42
2023/01/24 06:13:17;;;;;;;18.45;11.20;;;;;;;;;;5004092;28;20038;-45
2023/01/24 06:15:42;;;;;;;18.63;9.98;;;;;;;;;;5009734;28;20084;-42
2023/01/24 06:18:13;;;;;;;16.40;11.30;;;;;;;;;;5008612;28;20642;-44
2023/01/24 06:20:39;;;;;;;15.45;10.10;;;;;;;;;;5007010;28;20511;-45
2023/01/24 06:23:07;;;;;;;19.75;12.65;;;;;;;;;;5005329;28;20153;-47
2023/01/24 06:25:32;;;;;;;19.10;11.95;;;;;;;;;;5007098;28;20036;-44
2023/01/24 06:27:58;;;;;;;23.92;12.85;;;;;;;;;;5004899;28;20112;-46
2023/01/24 06:30:24;;;;;;;17.25;12.70;;;;;;;;;;5007895;28;20074;-42
2023/01/24 06:33:05;;;;;;;19.77;13.23;;;;;;;;;;5007857;28;20120;-48
2023/01/24 06:35:45;;;;;;;18.02;11.90;;;;;;;;;;5005829;28;20109;-42
2023/01/24 06:38:22;;;;;;;22.52;12.80;;;;;;;;;;5003418;28;20691;-47
2023/01/24 06:40:54;;;;;;;17.77;12.10;;;;;;;;;;5005314;28;22396;-43
2023/01/24 06:43:20;;;;;;;17.63;12.35;;;;;;;;;;5005236;28;20092;-42
2023/01/24 06:45:46;;;;;;;20.73;14.50;;;;;;;;;;5007724;28;20034;-46
2023/01/24 06:48:11;;;;;;;24.75;15.07;;;;;;;;;;5004102;28;20392;-45
2023/01/24 06:50:36;;;;;;;24.50;15.32;;;;;;;;;;5009163;28;20069;-42
2023/01/24 06:53:02;;;;;;;25.20;15.60;;;;;;;;;;5008081;28;20534;-45
2023/01/24 06:55:27;;;;;;;36.85;19.42;;;;;;;;;;5006227;28;20030;-47
2023/01/24 06:57:57;;;;;;;39.92;19.88;;;;;;;;;;5004945;28;20042;-45
2023/01/24 07:00:22;;;;;;;35.30;19.38;;;;;;;;;;5008782;28;20045;-44
2023/01/24 07:02:48;;;;;;;31.88;17.95;;;;;;;;;;5005311;28;20049;-43
2023/01/24 07:05:13;;;;;;;32.58;15.70;;;;;;;;;;5011509;28;20030;-43
2023/01/24 07:07:39;;;;;;;37.80;17.48;;;;;;;;;;5004017;28;20622;-46
2023/01/24 07:10:05;;;;;;;34.25;17.73;;;;;;;;;;5006350;28;20038;-45
2023/01/24 07:12:30;;;;;;;27.67;16.10;;;;;;;;;;5006474;28;20030;-45
2023/01/24 07:14:56;;;;;;;89.50;35.97;;;;;;;;;;5004772;28;20748;-44
2023/01/24 07:17:22;;;;;;;35.90;20.00;;;;;;;;;;5006112;28;20030;-47
2023/01/24 07:19:47;;;;;;;38.40;19.40;;;;;;;;;;5007249;28;20174;-44
2023/01/24 07:22:13;;;;;;;26.05;15.85;;;;;;;;;;5006860;28;20029;-44
2023/01/24 07:24:39;;;;;;;25.40;16.52;;;;;;;;;;5005470;28;20037;-48
2023/01/24 07:27:05;;;;;;;70.38;29.10;;;;;;;;;;5005936;28;20029;-43
2023/01/24 07:29:30;;;;;;;49.05;21.67;;;;;;;;;;5005708;28;20062;-42
2023/01/24 07:31:55;;;;;;;37.40;19.60;;;;;;;;;;5006627;28;20117;-43
2023/01/24 07:34:21;;;;;;;31.33;16.10;;;;;;;;;;5006129;28;20046;-43
2023/01/24 07:36:47;;;;;;;33.10;18.13;;;;;;;;;;5006169;28;20058;-42
2023/01/24 07:39:13;;;;;;;37.00;22.08;;;;;;;;;;5005120;28;21209;-45
2023/01/24 07:41:40;;;;;;;32.22;17.67;;;;;;;;;;5002576;28;20121;-44
2023/01/24 07:44:06;;;;;;;20.60;8.07;;;;;;;;;;5004079;28;20669;-44
2023/01/24 07:46:35;;;;;;;14.27;7.45;;;;;;;;;;5006617;28;20134;-42
2023/01/24 07:49:01;;;;;;;17.83;9.00;;;;;;;;;;5005233;28;20139;-45
2023/01/24 07:51:26;;;;;;;16.70;8.40;;;;;;;;;;5003011;28;20068;-47
2023/01/24 07:53:52;;;;;;;15.70;7.93;;;;;;;;;;5006713;28;20045;-47
2023/01/24 07:56:17;;;;;;;21.08;9.20;;;;;;;;;;5006258;28;20116;-43
2023/01/24 07:58:42;;;;;;;8.55;6.88;;;;;;;;;;5005102;28;20042;-43
2023/01/24 08:01:08;;;;;;;16.60;8.13;;;;;;;;;;5002982;28;20030;-44
2023/01/24 08:03:33;;;;;;;10.73;7.35;;;;;;;;;;5005378;28;20041;-43
2023/01/24 08:05:59;;;;;;;15.57;7.75;;;;;;;;;;5005930;28;20048;-45
2023/01/24 08:08:25;;;;;;;10.95;6.85;;;;;;;;;;5004868;28;20044;-46
2023/01/24 08:10:50;;;;;;;14.00;8.15;;;;;;;;;;5004121;28;20042;-46
2023/01/24 08:13:16;;;;;;;19.35;9.82;;;;;;;;;;5004444;28;20117;-44
2023/01/24 08:15:41;;;;;;;17.10;8.27;;;;;;;;;;5004242;28;20084;-43
2023/01/24 08:18:06;;;;;;;12.95;7.70;;;;;;;;;;5005648;28;20096;-44
2023/01/24 08:20:32;;;;;;;8.18;6.38;;;;;;;;;;5006626;28;20026;-43
2023/01/24 08:22:57;;;;;;;13.80;6.53;;;;;;;;;;5003753;28;20050;-43
2023/01/24 08:25:24;;;;;;;7.90;6.53;;;;;;;;;;5005813;28;20095;-45
2023/01/24 08:27:49;;;;;;;6.43;5.82;;;;;;;;;;5005845;28;20026;-45
2023/01/24 08:30:15;;;;;;;8.32;6.60;;;;;;;;;;5004995;28;20120;-43
2023/01/24 08:32:41;;;;;;;8.13;6.15;;;;;;;;;;5003245;28;20046;-44
2023/01/24 08:35:07;;;;;;;15.70;6.22;;;;;;;;;;5005455;28;20030;-46
2023/01/24 08:37:33;;;;;;;11.43;7.38;;;;;;;;;;5005178;28;20454;-43
2023/01/24 08:39:58;;;;;;;8.57;7.60;;;;;;;;;;5004961;28;20100;-43
2023/01/24 08:42:24;;;;;;;21.95;13.20;;;;;;;;;;5003927;28;20383;-46
2023/01/24 08:44:49;;;;;;;18.83;11.38;;;;;;;;;;5006192;28;20073;-43
2023/01/24 08:47:15;;;;;;;21.33;11.98;;;;;;;;;;5004851;28;20568;-47
2023/01/24 08:49:40;;;;;;;27.38;12.43;;;;;;;;;;5005498;28;20482;-46
2023/01/24 08:52:06;;;;;;;27.23;12.82;;;;;;;;;;5006048;28;20026;-47
2023/01/24 08:54:32;;;;;;;24.75;13.40;;;;;;;;;;5004288;28;20073;-49
2023/01/24 08:56:58;;;;;;;24.70;13.55;;;;;;;;;;5005606;28;20038;-45
2023/01/24 08:59:23;;;;;;;26.13;14.23;;;;;;;;;;5001952;28;20050;-44
2023/01/24 09:01:49;;;;;;;26.73;14.45;;;;;;;;;;5006655;28;20547;-44
2023/01/24 09:04:14;;;;;;;26.73;13.57;;;;;;;;;;5004717;28;20041;-44
2023/01/24 09:06:40;;;;;;;21.02;12.68;;;;;;;;;;5005803;28;20022;-48
2023/01/24 09:09:05;;;;;;;19.73;10.75;;;;;;;;;;5005337;28;20092;-46
2023/01/24 09:11:31;;;;;;;17.48;10.43;;;;;;;;;;5007681;28;20030;-43
2023/01/24 09:13:57;;;;;;;17.58;10.63;;;;;;;;;;5004521;28;20153;-45
2023/01/24 09:16:22;;;;;;;16.60;10.13;;;;;;;;;;5004510;28;20495;-47
2023/01/24 09:18:50;;;;;;;17.52;11.00;;;;;;;;;;5003831;28;20406;-43
2023/01/24 09:21:16;;;;;;;26.77;15.82;;;;;;;;;;5007023;28;20049;-43
2023/01/24 09:23:42;;;;;;;24.17;14.18;;;;;;;;;;5005241;28;20038;-46
2023/01/24 09:26:07;;;;;;;16.70;10.55;;;;;;;;;;5005577;28;20041;-44
2023/01/24 09:28:33;;;;;;;36.53;11.18;;;;;;;;;;5004459;28;20121;-44
2023/01/24 09:30:59;;;;;;;18.13;11.07;;;;;;;;;;5004956;28;20507;-45
2023/01/24 09:33:25;;;;;;;20.15;9.93;;;;;;;;;;5002822;28;20041;-44
2023/01/24 09:35:58;;;;;;;20.20;12.48;;;;;;;;;;5005120;28;20026;-43
2023/01/24 09:38:27;;;;;;;23.27;14.68;;;;;;;;;;5006816;28;20034;-47
2023/01/24 09:41:10;;;;;;;23.67;13.52;;;;;;;;;;5009393;28;20029;-48
2023/01/24 09:43:43;;;;;;;18.63;12.57;;;;;;;;;;5009817;28;20038;-44
2023/01/24 09:46:40;;;;;;;27.65;13.88;;;;;;;;;;5008851;28;20026;-45
2023/01/24 09:49:36;;;;;;;17.50;11.70;;;;;;;;;;5003138;28;20042;-46
2023/01/24 09:52:06;;;;;;;13.40;9.20;;;;;;;;;;5006476;28;20116;-46
2023/01/24 09:54:43;;;;;;;15.10;7.43;;;;;;;;;;5005836;28;20038;-45
2023/01/24 09:57:23;;;;;;;11.50;6.60;;;;;;;;;;5010829;28;22961;-44
2023/01/24 09:59:55;;;;;;;10.15;5.78;;;;;;;;;;5005871;28;20125;-46
2023/01/24 10:02:23;;;;;;;6.78;5.00;;;;;;;;;;5005349;28;20046;-43
2023/01/24 10:04:49;;;;;;;26.65;9.30;;;;;;;;;;5007627;28;20030;-45
2023/01/24 10:07:47;;;;;;;27.38;11.52;;;;;;;;;;5007628;28;20380;-46
2023/01/24 10:10:30;;;;;;;25.83;11.02;;;;;;;;;;4986862;28;20093;-43
2023/01/24 10:13:08;;;;;;;21.20;10.48;;;;;;;;;;4986562;28;20069;-45
2023/01/24 10:15:47;;;;;;;20.63;9.82;;;;;;;;;;4984979;28;20129;-44
2023/01/24 10:18:34;;;;;;;25.75;14.07;;;;;;;;;;4969453;28;20050;-43
2023/01/24 10:21:22;;;;;;;33.63;14.90;;;;;;;;;;4983831;28;20034;-47
2023/01/24 10:23:54;;;;;;;24.10;15.43;;;;;;;;;;4948753;29;20071;-43
2023/01/24 10:26:22;;;;;;;27.58;15.20;;;;;;;;;;4939864;29;20042;-49
2023/01/24 10:28:54;;;;;;;26.27;15.10;;;;;;;;;;4944848;29;20039;-45
2023/01/24 10:31:30;;;;;;;10.70;7.28;;;;;;;;;;4940402;29;20167;-44
2023/01/24 10:34:00;;;;;;;12.52;8.52;;;;;;;;;;4941102;29;20140;-44
2023/01/24 10:36:43;;;;;;;8.52;7.05;;;;;;;;;;4941885;29;20052;-46
2023/01/24 10:39:10;;;;;;;6.78;6.03;;;;;;;;;;4938771;29;20382;-48
2023/01/24 10:41:35;;;;;;;7.80;6.05;;;;;;;;;;4940963;29;20036;-43
2023/01/24 10:44:15;;;;;;;13.13;5.78;;;;;;;;;;4934775;29;20050;-49
2023/01/24 10:47:02;;;;;;;13.98;5.63;;;;;;;;;;4944487;28;20125;-44
2023/01/24 10:49:35;;;;;;;7.30;5.35;;;;;;;;;;4962714;28;20054;-45
2023/01/24 10:52:17;;;;;;;7.93;6.25;;;;;;;;;;4965376;28;20066;-43
2023/01/24 10:54:53;;;;;;;8.00;5.65;;;;;;;;;;4963240;28;20054;-45
2023/01/24 10:57:37;;;;;;;7.20;6.05;;;;;;;;;;4966536;28;20019;-45
2023/01/24 11:00:26;;;;;;;10.63;6.78;;;;;;;;;;4971009;28;20037;-43
2023/01/24 11:02:55;;;;;;;7.32;5.97;;;;;;;;;;5009927;28;20077;-44
2023/01/24 11:05:21;;;;;;;8.85;6.50;;;;;;;;;;5007345;28;20085;-43
2023/01/24 11:07:50;;;;;;;10.88;6.18;;;;;;;;;;5004906;28;20042;-44
2023/01/24 11:10:16;;;;;;;8.45;6.57;;;;;;;;;;5005268;28;20038;-44
2023/01/24 11:12:59;;;;;;;8.18;6.28;;;;;;;;;;5008165;28;20115;-45
2023/01/24 11:15:30;;;;;;;7.90;6.35;;;;;;;;;;5020632;28;20457;-44
2023/01/24 11:18:06;;;;;;;8.75;6.53;;;;;;;;;;5002826;28;20112;-43
2023/01/24 11:20:34;;;;;;;9.77;5.95;;;;;;;;;;5004625;28;20036;-45
2023/01/24 11:23:14;;;;;;;8.98;6.32;;;;;;;;;;5009055;28;20051;-46
2023/01/24 11:25:54;;;;;;;5.95;5.22;;;;;;;;;;5005189;28;20025;-45
2023/01/24 11:28:30;;;;;;;7.20;5.75;;;;;;;;;;5004256;28;20506;-46
2023/01/24 11:30:58;;;;;;;8.40;5.90;;;;;;;;;;5006042;28;20059;-45
2023/01/24 11:34:02;;;;;;;9.50;5.72;;;;;;;;;;5006690;28;20117;-43
2023/01/24 11:36:38;;;;;;;7.93;5.78;;;;;;;;;;4983880;28;20050;-45
2023/01/24 11:39:50;;;;;;;6.97;5.32;;;;;;;;;;4981030;28;20097;-46
2023/01/24 11:42:15;;;;;;;7.85;5.82;;;;;;;;;;4908461;29;20058;-45
2023/01/24 11:45:11;;;;;;;9.98;6.30;;;;;;;;;;4926320;29;20052;-45
2023/01/24 11:47:47;;;;;;;17.63;8.00;;;;;;;;;;4925653;29;20047;-43
2023/01/24 11:50:56;;;;;;;10.07;7.55;;;;;;;;;;4927180;29;20134;-44
2023/01/24 11:53:40;;;;;;;7.45;5.53;;;;;;;;;;4870111;29;20048;-45
2023/01/24 11:56:41;;;;;;;8.70;6.10;;;;;;;;;;4868100;29;20313;-44
2023/01/24 11:59:44;;;;;;;8.77;6.13;;;;;;;;;;4865255;29;20041;-45
2023/01/24 12:03:03;;;;;;;11.00;6.85;;;;;;;;;;4867765;29;20040;-44
2023/01/24 12:06:04;;;;;;;10.80;6.95;;;;;;;;;;4850940;29;20510;-48
2023/01/24 12:08:54;;;;;;;13.90;7.10;;;;;;;;;;4850526;29;20045;-49
2023/01/24 12:11:34;;;;;;;10.05;7.65;;;;;;;;;;4851587;29;20054;-44
2023/01/24 12:14:18;;;;;;;12.32;8.68;;;;;;;;;;4852071;29;20080;-51
2023/01/24 12:16:46;;;;;;;11.38;8.02;;;;;;;;;;4852363;29;20034;-47
2023/01/24 12:19:29;;;;;;;12.20;7.35;;;;;;;;;;4895964;29;20156;-44
2023/01/24 12:21:57;;;;;;;7.13;6.20;;;;;;;;;;4927836;29;20140;-45
2023/01/24 12:24:33;;;;;;;7.55;6.18;;;;;;;;;;4927037;29;20039;-45
2023/01/24 12:27:03;;;;;;;10.00;7.65;;;;;;;;;;4931548;29;20059;-44
2023/01/24 12:29:50;;;;;;;9.35;6.10;;;;;;;;;;4927329;29;20083;-46
2023/01/24 12:32:19;;;;;;;9.68;7.45;;;;;;;;;;4944563;28;20043;-43
2023/01/24 12:35:22;;;;;;;10.25;6.97;;;;;;;;;;4947481;28;20046;-49
2023/01/24 12:38:01;;;;;;;12.48;6.15;;;;;;;;;;4945019;28;20138;-52
2023/01/24 12:40:34;;;;;;;10.23;6.85;;;;;;;;;;4999956;28;20062;-50
2023/01/24 12:43:12;;;;;;;9.35;6.93;;;;;;;;;;5004783;28;20065;-46
2023/01/24 12:45:43;;;;;;;11.05;8.48;;;;;;;;;;5002401;28;20052;-44
2023/01/24 12:48:15;;;;;;;12.70;8.48;;;;;;;;;;5002247;28;20844;-45
2023/01/24 12:50:56;;;;;;;9.95;7.78;;;;;;;;;;5004347;28;20033;-43
2023/01/24 12:53:52;;;;;;;9.90;8.32;;;;;;;;;;5007175;28;20499;-44
2023/01/24 12:56:26;;;;;;;9.70;7.78;;;;;;;;;;5003977;28;20029;-43
2023/01/24 12:58:53;;;;;;;12.38;8.40;;;;;;;;;;5005013;28;20050;-46
2023/01/24 13:01:26;;;;;;;12.70;8.77;;;;;;;;;;5005112;28;20053;-46
2023/01/24 13:03:53;;;;;;;14.88;9.60;;;;;;;;;;5001578;28;20373;-44
2023/01/24 13:06:49;;;;;;;15.80;9.25;;;;;;;;;;5006366;28;20050;-45
2023/01/24 13:09:50;;;;;;;14.60;9.55;;;;;;;;;;5002935;28;20042;-44
2023/01/24 13:12:22;;;;;;;13.77;9.35;;;;;;;;;;4997566;28;20376;-45
2023/01/24 13:15:20;;;;;;;15.18;9.95;;;;;;;;;;5008115;28;20030;-47
2023/01/24 13:18:04;;;;;;;14.32;10.10;;;;;;;;;;5008386;28;20039;-44
2023/01/24 13:21:11;;;;;;;18.08;9.93;;;;;;;;;;5011697;28;20022;-45
2023/01/24 13:24:03;;;;;;;13.30;10.00;;;;;;;;;;5008768;28;20061;-46
2023/01/24 13:26:56;;;;;;;14.55;10.40;;;;;;;;;;5006938;28;20394;-42
2023/01/24 13:29:43;;;;;;;12.00;8.77;;;;;;;;;;5002912;28;20418;-44
2023/01/24 13:32:12;;;;;;;13.45;8.55;;;;;;;;;;5006238;28;20423;-44
2023/01/24 13:34:43;;;;;;;10.50;7.78;;;;;;;;;;5007662;28;20107;-47
2023/01/24 13:37:25;;;;;;;10.55;7.90;;;;;;;;;;5009569;28;20026;-47
2023/01/24 13:40:18;;;;;;;14.13;8.32;;;;;;;;;;5009248;28;20097;-46
2023/01/24 13:42:44;;;;;;;;;;;;;;;;;;5009790;28;20133;-44
2023/01/24 13:45:36;;;;;;;11.60;8.05;;;;;;;;;;5007656;28;20028;-44
2023/01/24 13:48:27;;;;;;;9.48;7.30;;;;;;;;;;5006357;28;20125;-43
2023/01/24 13:51:30;;;;;;;12.13;7.72;;;;;;;;;;5007719;28;20140;-45
2023/01/24 13:54:03;;;;;;;9.57;7.20;;;;;;;;;;5004004;28;20100;-46
2023/01/24 13:56:28;;;;;;;;;;;;;;;;;;5007326;28;20026;-42
2023/01/24 13:58:55;;;;;;;7.50;5.90;;;;;;;;;;5006243;28;20429;-49
2023/01/24 14:01:21;;;;;;;13.45;6.75;;;;;;;;;;5006908;28;20064;-44
2023/01/24 14:03:57;;;;;;;9.48;6.10;;;;;;;;;;5010011;28;20042;-44
2023/01/24 14:06:23;;;;;;;8.65;6.68;;;;;;;;;;5008402;28;20152;-46
2023/01/24 14:09:19;;;;;;;7.70;6.13;;;;;;;;;;5007240;28;20049;-43
2023/01/24 14:12:03;;;;;;;8.15;5.47;;;;;;;;;;5002750;28;20049;-45
2023/01/24 14:14:55;;;;;;;9.88;6.00;;;;;;;;;;5006419;28;20042;-45
2023/01/24 14:17:36;;;;;;;9.32;5.70;;;;;;;;;;5008415;28;20032;-44
2023/01/24 14:20:03;;;;;;;7.35;6.03;;;;;;;;;;5007524;28;20029;-45
2023/01/24 14:22:36;;;;;;;5.85;4.95;;;;;;;;;;5003855;28;20044;-44
2023/01/24 14:25:18;;;;;;;8.18;6.32;;;;;;;;;;5008611;28;20160;-46
2023/01/24 14:28:18;;;;;;;8.83;5.70;;;;;;;;;;5005435;28;20034;-44
2023/01/24 14:30:56;;;;;;;7.35;4.97;;;;;;;;;;4999858;28;20496;-44
2023/01/24 14:33:28;;;;;;;8.68;4.60;;;;;;;;;;5005711;28;20077;-44
2023/01/24 14:36:03;;;;;;;6.72;4.75;;;;;;;;;;5007154;28;20026;-46
2023/01/24 14:38:30;;;;;;;6.50;4.88;;;;;;;;;;5005697;28;20133;-44
2023/01/24 14:40:56;;;;;;;7.07;4.35;;;;;;;;;;5007696;28;20105;-45
2023/01/24 14:43:33;;;;;;;6.20;4.93;;;;;;;;;;5006616;28;20026;-46
2023/01/24 14:46:08;;;;;;;17.15;4.93;;;;;;;;;;5007803;28;20395;-46
2023/01/24 14:48:33;;;;;;;5.55;4.43;;;;;;;;;;5005728;28;20038;-44
2023/01/24 14:51:06;;;;;;;6.82;4.75;;;;;;;;;;5007815;28;20030;-44
2023/01/24 14:53:33;;;;;;;7.95;4.80;;;;;;;;;;5006356;28;20553;-45
2023/01/24 14:56:10;;;;;;;9.07;6.35;;;;;;;;;;5006844;28;20028;-43
2023/01/24 14:58:35;;;;;;;9.02;5.35;;;;;;;;;;5005552;28;20038;-43
2023/01/24 15:01:02;;;;;;;7.45;5.38;;;;;;;;;;5007356;28;20192;-43
2023/01/24 15:03:35;;;;;;;8.48;6.35;;;;;;;;;;5006685;28;20118;-43
2023/01/24 15:06:02;;;;;;;7.25;5.60;;;;;;;;;;5006832;28;20053;-46
2023/01/24 15:08:28;;;;;;;9.13;7.05;;;;;;;;;;5005630;28;20030;-44
2023/01/24 15:11:03;;;;;;;7.45;6.50;;;;;;;;;;5010849;28;20069;-43
2023/01/24 15:13:35;;;;;;;10.05;6.15;;;;;;;;;;5005223;28;20038;-45
2023/01/24 15:16:01;;;;;;;8.73;6.18;;;;;;;;;;5005617;28;20034;-46
2023/01/24 15:18:39;;;;;;;8.55;6.85;;;;;;;;;;5005908;28;20034;-46
2023/01/24 15:21:14;;;;;;;9.27;6.82;;;;;;;;;;5006601;28;20031;-44
2023/01/24 15:23:40;;;;;;;9.57;6.95;;;;;;;;;;5006057;28;20514;-43
2023/01/24 15:26:31;;;;;;;10.90;7.30;;;;;;;;;;5006977;28;20040;-48
2023/01/24 15:28:57;;;;;;;15.77;7.95;;;;;;;;;;5003530;28;20556;-47
2023/01/24 15:31:27;;;;;;;13.07;8.35;;;;;;;;;;5008835;28;20125;-48